Time;durP1;ratioP1;P1;durP2;ratioP2;P2;SDS_P1;SDS_P2;PMS_P1;PMS_P2;Temp;Humidity;BMP_temperature;BMP_pressure;BME280_temperature;BME280_humidity;BME280_pressure;Samples;Min_cycle;Max_cycle;Signal;HPM_P1;HPM_P2
2023/09/24 00:01:06;;;;;;;0.43;0.43;;;;;;;15.26;45.86;99978.59;4960113;29;20062;-89
2023/09/24 00:03:34;;;;;;;0.30;0.30;;;;;;;15.22;46.08;99972.00;4941804;29;20047;-89
2023/09/24 00:06:09;;;;;;;0.40;0.40;;;;;;;15.19;46.14;99970.59;4961189;29;20047;-90
2023/09/24 00:08:37;;;;;;;0.30;0.30;;;;;;;15.16;46.27;99968.41;4958011;29;20043;-90
2023/09/24 00:11:04;;;;;;;0.40;0.40;;;;;;;15.12;46.36;99976.25;4957885;29;20098;-90
2023/09/24 00:13:35;;;;;;;0.40;0.40;;;;;;;15.11;46.42;99974.59;4958289;29;20538;-91
2023/09/24 00:16:06;;;;;;;0.30;0.30;;;;;;;15.12;46.54;99981.69;4957113;29;20379;-91
2023/09/24 00:18:34;;;;;;;0.40;0.40;;;;;;;15.12;46.59;99978.16;4957032;29;20062;-90
2023/09/24 00:21:02;;;;;;;0.40;0.40;;;;;;;15.10;46.46;99977.56;4957823;29;20058;-91
2023/09/24 00:23:29;;;;;;;0.40;0.40;;;;;;;15.12;46.58;99978.97;4940049;29;20047;-90
2023/09/24 00:25:57;;;;;;;0.40;0.40;;;;;;;15.11;46.63;99982.75;4958095;29;20071;-90
2023/09/24 00:28:24;;;;;;;0.40;0.40;;;;;;;15.10;46.77;99974.84;4956395;28;20051;-88
2023/09/24 00:30:52;;;;;;;0.40;0.40;;;;;;;15.12;46.61;99976.25;4957045;29;20142;-89
2023/09/24 00:33:21;;;;;;;0.40;0.40;;;;;;;15.13;46.95;99977.88;4957948;29;20086;-90
2023/09/24 00:35:49;;;;;;;0.40;0.40;;;;;;;15.10;46.84;99980.28;4958181;29;20081;-88
2023/09/24 00:38:18;;;;;;;0.40;0.40;;;;;;;15.10;46.98;99978.38;4924960;29;20047;-91
2023/09/24 00:40:46;;;;;;;0.40;0.40;;;;;;;15.02;47.04;99978.81;4941226;29;20058;-89
2023/09/24 00:43:40;;;;;;;0.40;0.40;;;;;;;15.07;47.10;99980.78;4957077;29;20071;-89
2023/09/24 00:46:08;;;;;;;0.40;0.40;;;;;;;15.02;47.22;99981.53;4921516;29;20055;-89
2023/09/24 00:48:36;;;;;;;0.40;0.40;;;;;;;15.02;47.32;99980.72;4956789;29;20414;-90
2023/09/24 00:51:15;;;;;;;0.40;0.40;;;;;;;15.07;47.35;99978.91;4957690;29;20061;-88
2023/09/24 00:53:43;;;;;;;0.40;0.40;;;;;;;15.06;47.28;99981.84;4956989;29;20066;-91
2023/09/24 00:56:11;;;;;;;0.40;0.40;;;;;;;15.08;47.26;99979.72;4940901;29;20063;-90
2023/09/24 00:58:39;;;;;;;0.40;0.40;;;;;;;15.08;47.37;99983.25;4910065;29;20141;-90
2023/09/24 01:01:09;;;;;;;0.40;0.40;;;;;;;15.04;47.53;99976.69;4939570;29;20070;-90
2023/09/24 01:03:39;;;;;;;0.40;0.40;;;;;;;15.05;47.29;99975.59;4956490;29;20055;-90
2023/09/24 01:06:07;;;;;;;0.40;0.40;;;;;;;15.03;47.29;99972.31;4957898;29;20051;-90
2023/09/24 01:08:35;;;;;;;0.40;0.40;;;;;;;15.01;47.70;99982.59;4964477;29;20438;-88
2023/09/24 01:11:03;;;;;;;0.38;0.38;;;;;;;14.95;47.88;99970.84;4973286;29;20071;-91
2023/09/24 01:13:42;;;;;;;0.40;0.40;;;;;;;14.93;47.98;99966.72;4959866;29;20047;-90
2023/09/24 01:16:12;;;;;;;0.40;0.40;;;;;;;14.93;48.13;99978.41;4947322;29;20059;-91
2023/09/24 01:18:41;;;;;;;0.40;0.40;;;;;;;14.95;48.11;99976.28;4940233;29;20074;-91
2023/09/24 01:21:14;;;;;;;0.40;0.40;;;;;;;14.96;48.12;99966.22;4939004;29;20091;-90
2023/09/24 01:23:45;;;;;;;0.40;0.40;;;;;;;14.92;48.23;99954.22;4939730;29;20111;-91
2023/09/24 01:26:18;;;;;;;0.40;0.40;;;;;;;14.93;48.29;99966.72;4938797;29;20425;-89
2023/09/24 01:28:47;;;;;;;0.40;0.40;;;;;;;14.91;48.30;99958.84;4956132;29;20748;-91
2023/09/24 01:31:21;;;;;;;0.40;0.40;;;;;;;14.92;48.37;99963.19;4956529;29;20104;-89
2023/09/24 01:33:48;;;;;;;0.40;0.40;;;;;;;14.86;48.58;99956.03;4924172;29;20043;-92
2023/09/24 01:36:19;;;;;;;0.40;0.40;;;;;;;14.91;48.37;99963.44;4956598;29;20134;-90
2023/09/24 01:38:47;;;;;;;0.40;0.40;;;;;;;14.90;48.50;99956.34;4939767;28;20051;-91
2023/09/24 01:41:15;;;;;;;0.40;0.40;;;;;;;14.90;48.62;99954.44;4953296;29;20111;-90
2023/09/24 01:43:47;;;;;;;0.40;0.40;;;;;;;14.91;48.77;99966.13;4965124;29;20138;-91
2023/09/24 01:46:15;;;;;;;0.40;0.40;;;;;;;14.89;48.77;99962.88;4955462;29;20187;-89
2023/09/24 01:48:49;;;;;;;0.40;0.40;;;;;;;14.92;48.65;99962.38;4905387;29;20055;-88
2023/09/24 01:51:17;;;;;;;0.40;0.40;;;;;;;14.90;48.86;99961.78;4937779;29;20051;-89
2023/09/24 01:53:44;;;;;;;0.40;0.40;;;;;;;14.91;48.74;99955.28;4937717;29;20052;-88
2023/09/24 01:56:13;;;;;;;0.40;0.40;;;;;;;14.90;48.84;99954.44;4954726;29;20039;-89
2023/09/24 01:58:41;;;;;;;0.40;0.40;;;;;;;14.86;48.97;99945.19;4937845;29;20101;-88
2023/09/24 02:01:09;;;;;;;0.40;0.40;;;;;;;14.89;48.89;99950.09;4937750;29;20451;-89
2023/09/24 02:03:36;;;;;;;0.40;0.40;;;;;;;14.89;48.95;99952.00;4922234;29;20089;-90
2023/09/24 02:06:07;;;;;;;0.40;0.40;;;;;;;14.88;49.02;99948.44;4937944;29;20570;-90
2023/09/24 02:08:34;;;;;;;0.32;0.32;;;;;;;14.90;49.04;99948.19;4956310;29;20058;-90
2023/09/24 02:11:02;;;;;;;0.40;0.40;;;;;;;14.89;49.08;99950.09;4955096;29;20091;-88
2023/09/24 02:13:29;;;;;;;0.40;0.40;;;;;;;14.89;48.97;99943.84;4954918;29;20091;-89
2023/09/24 02:16:01;;;;;;;0.40;0.40;;;;;;;14.84;49.06;99939.16;4937723;29;20130;-88
2023/09/24 02:18:32;;;;;;;0.40;0.40;;;;;;;14.86;49.22;99941.59;4937547;29;20054;-90
2023/09/24 02:21:01;;;;;;;0.40;0.40;;;;;;;14.83;49.15;99944.84;4937683;29;20059;-91
2023/09/24 02:23:29;;;;;;;0.40;0.40;;;;;;;14.81;49.26;99941.53;4955049;29;20047;-90
2023/09/24 02:25:56;;;;;;;0.40;0.40;;;;;;;14.76;49.36;99936.03;4937880;29;20079;-89
2023/09/24 02:28:24;;;;;;;0.40;0.40;;;;;;;14.78;49.38;99947.47;4937962;29;20048;-90
2023/09/24 02:30:53;;;;;;;0.40;0.40;;;;;;;14.74;49.67;99941.72;4964157;29;20035;-90
2023/09/24 02:33:23;;;;;;;0.40;0.40;;;;;;;14.73;49.72;99946.31;4968455;29;20075;-91
2023/09/24 02:35:51;;;;;;;0.40;0.40;;;;;;;14.69;49.95;99939.75;4963159;29;20071;-91
2023/09/24 02:38:19;;;;;;;0.40;0.40;;;;;;;14.69;49.86;99944.38;4960462;29;20520;-91
2023/09/24 02:40:46;;;;;;;0.40;0.40;;;;;;;14.70;49.95;99946.81;4959160;29;20063;-91
2023/09/24 02:43:14;;;;;;;0.45;0.45;;;;;;;14.68;50.01;99946.25;4957041;29;20102;-90
2023/09/24 02:45:41;;;;;;;0.40;0.40;;;;;;;14.65;50.32;99949.47;4955651;29;20529;-88
2023/09/24 02:48:09;;;;;;;0.40;0.40;;;;;;;14.65;49.98;99954.91;4956169;29;20043;-89
2023/09/24 02:50:36;;;;;;;0.45;0.45;;;;;;;14.63;50.25;99948.88;4956014;28;20051;-86
2023/09/24 02:53:05;;;;;;;0.40;0.40;;;;;;;14.59;50.28;99949.66;4943025;29;20138;-88
2023/09/24 02:55:33;;;;;;;0.50;0.50;;;;;;;14.53;50.51;99948.72;4973444;29;20099;-91
2023/09/24 02:58:04;;;;;;;0.40;0.40;;;;;;;14.53;50.63;99959.59;4954980;29;20085;-87
2023/09/24 03:00:36;;;;;;;0.40;0.40;;;;;;;14.48;50.80;99952.16;4958440;29;20055;-87
2023/09/24 03:03:05;;;;;;;0.40;0.40;;;;;;;14.43;50.99;99953.97;4940458;29;20427;-87
2023/09/24 03:05:34;;;;;;;0.40;0.40;;;;;;;14.39;51.06;99945.50;4960558;29;20082;-91
2023/09/24 03:08:02;;;;;;;0.40;0.40;;;;;;;14.37;51.18;99958.50;4945318;29;20138;-92
2023/09/24 03:10:32;;;;;;;0.45;0.45;;;;;;;14.33;51.18;99946.50;4913003;29;20069;-92
2023/09/24 03:13:00;;;;;;;0.40;0.40;;;;;;;14.31;51.21;99952.16;4943510;29;20094;-90
2023/09/24 03:15:28;;;;;;;0.40;0.40;;;;;;;14.32;51.25;99945.66;4959869;29;20113;-90
2023/09/24 03:17:55;;;;;;;0.40;0.40;;;;;;;14.32;51.21;99950.25;4941490;29;20561;-89
2023/09/24 03:20:24;;;;;;;0.40;0.40;;;;;;;14.33;51.22;99946.50;4941653;29;20059;-88
2023/09/24 03:22:54;;;;;;;0.40;0.40;;;;;;;14.31;51.27;99952.16;4941320;29;20403;-88
2023/09/24 03:25:24;;;;;;;0.30;0.30;;;;;;;14.27;51.42;99953.72;4959117;29;20058;-87
2023/09/24 03:27:54;;;;;;;0.50;0.50;;;;;;;14.31;51.53;99964.91;4941651;29;20047;-87
2023/09/24 03:30:21;;;;;;;0.40;0.40;;;;;;;14.32;51.50;99964.66;4946058;29;20082;-86
2023/09/24 03:32:53;;;;;;;0.40;0.40;;;;;;;14.31;51.35;99965.72;4943598;29;20047;-86
2023/09/24 03:35:25;;;;;;;0.40;0.40;;;;;;;14.32;51.43;99967.38;4944994;29;20067;-88
2023/09/24 03:37:54;;;;;;;0.40;0.40;;;;;;;14.30;51.38;99964.09;4951005;29;20428;-92
2023/09/24 03:40:24;;;;;;;0.40;0.40;;;;;;;14.26;51.74;99971.06;4924320;29;20047;-91
2023/09/24 03:42:53;;;;;;;0.40;0.40;;;;;;;14.25;51.49;99968.59;4909719;29;20479;-89
2023/09/24 03:45:23;;;;;;;0.40;0.40;;;;;;;14.19;51.89;99966.88;4950008;29;20067;-87
2023/09/24 03:47:52;;;;;;;0.40;0.40;;;;;;;14.18;51.96;99966.06;4946643;29;20105;-88
2023/09/24 03:50:20;;;;;;;0.40;0.40;;;;;;;14.16;52.30;99967.38;4945856;29;20061;-88
2023/09/24 03:52:51;;;;;;;0.40;0.40;;;;;;;14.12;52.01;99971.63;4933602;29;20577;-89
2023/09/24 03:55:19;;;;;;;0.50;0.50;;;;;;;14.11;52.36;99968.09;4958432;29;20059;-89
2023/09/24 03:57:48;;;;;;;0.50;0.50;;;;;;;14.10;52.34;99963.72;4933411;29;20059;-90
2023/09/24 04:00:20;;;;;;;0.40;0.40;;;;;;;14.09;52.41;99968.31;4957381;29;20626;-89
2023/09/24 04:02:51;;;;;;;0.50;0.50;;;;;;;14.08;52.44;99971.31;4938774;29;20130;-90
2023/09/24 04:05:22;;;;;;;0.40;0.40;;;;;;;14.08;52.60;99969.41;4925300;29;20106;-88
2023/09/24 04:07:55;;;;;;;0.40;0.40;;;;;;;14.04;52.48;99962.81;4957342;29;20578;-89
2023/09/24 04:10:28;;;;;;;0.40;0.40;;;;;;;14.13;52.46;99976.81;4957418;29;20176;-88
2023/09/24 04:12:57;;;;;;;0.40;0.40;;;;;;;14.15;52.53;99974.66;4956719;29;20058;-87
2023/09/24 04:15:28;;;;;;;0.40;0.40;;;;;;;14.17;52.38;99963.56;4975108;29;20085;-87
2023/09/24 04:17:57;;;;;;;0.47;0.47;;;;;;;14.23;52.14;99974.28;4966806;28;20059;-89
2023/09/24 04:20:29;;;;;;;0.40;0.40;;;;;;;14.24;52.41;99969.69;4957971;29;20067;-90
2023/09/24 04:22:57;;;;;;;0.40;0.40;;;;;;;14.27;52.21;99971.91;4940869;29;20051;-89
2023/09/24 04:25:26;;;;;;;0.50;0.50;;;;;;;14.29;52.37;99973.28;4942349;29;20050;-91
2023/09/24 04:27:54;;;;;;;0.50;0.50;;;;;;;14.31;52.28;99976.59;4959244;29;20043;-90
2023/09/24 04:30:24;;;;;;;0.40;0.40;;;;;;;14.32;52.18;99966.56;4958408;29;20422;-91
2023/09/24 04:32:54;;;;;;;0.50;0.50;;;;;;;14.31;52.50;99982.03;4959106;29;20059;-90
2023/09/24 04:35:22;;;;;;;0.43;0.43;;;;;;;14.30;52.20;99974.97;4958311;29;20106;-91
2023/09/24 04:37:51;;;;;;;0.40;0.40;;;;;;;14.24;52.41;99975.91;4940529;29;20135;-88
2023/09/24 04:40:19;;;;;;;0.40;0.40;;;;;;;14.26;52.44;99978.41;4957718;29;20062;-89
2023/09/24 04:42:50;;;;;;;0.45;0.45;;;;;;;14.32;52.47;99982.84;4958589;29;20055;-89
2023/09/24 04:45:18;;;;;;;0.40;0.40;;;;;;;14.29;52.61;99977.91;4941560;29;20055;-88
2023/09/24 04:47:48;;;;;;;0.40;0.40;;;;;;;14.27;52.49;99978.16;4956522;29;20433;-90
2023/09/24 04:50:17;;;;;;;0.40;0.40;;;;;;;14.23;52.81;99979.72;4939820;29;20055;-90
2023/09/24 04:52:47;;;;;;;0.40;0.40;;;;;;;14.22;52.75;99991.63;4956691;29;20059;-88
2023/09/24 04:55:16;;;;;;;0.50;0.50;;;;;;;14.22;52.96;99986.19;4939646;29;20118;-88
2023/09/24 04:57:46;;;;;;;0.40;0.40;;;;;;;14.20;52.83;99979.38;4940456;29;20047;-90
2023/09/24 05:00:15;;;;;;;0.40;0.40;;;;;;;14.16;52.88;99975.50;4925130;29;20073;-89
2023/09/24 05:02:47;;;;;;;0.38;0.38;;;;;;;14.18;52.80;99993.22;4940658;29;20055;-89
2023/09/24 05:05:15;;;;;;;0.40;0.40;;;;;;;14.21;52.99;99986.47;4935046;29;20134;-90
2023/09/24 05:07:43;;;;;;;0.40;0.40;;;;;;;14.22;52.88;99999.78;4937623;29;20055;-90
2023/09/24 05:10:10;;;;;;;0.40;0.40;;;;;;;14.24;52.90;100000.34;4944377;29;20062;-86
2023/09/24 05:12:40;;;;;;;0.40;0.40;;;;;;;14.28;52.85;99995.25;4910342;29;20563;-91
2023/09/24 05:15:08;;;;;;;0.50;0.50;;;;;;;14.51;52.35;100003.28;4938360;29;20155;-89
2023/09/24 05:17:35;;;;;;;0.40;0.40;;;;;;;14.68;51.86;100000.56;4935251;29;20404;-87
2023/09/24 05:20:04;;;;;;;0.40;0.40;;;;;;;14.84;51.48;100006.28;4955368;29;20189;-89
2023/09/24 05:22:31;;;;;;;0.40;0.40;;;;;;;14.98;51.39;100002.13;4956808;29;20051;-92
2023/09/24 05:24:58;;;;;;;0.40;0.40;;;;;;;15.03;51.18;100002.19;4939970;29;20047;-93
2023/09/24 05:27:30;;;;;;;0.47;0.47;;;;;;;15.16;50.83;100007.28;4940250;29;20081;-89
2023/09/24 05:29:58;;;;;;;0.40;0.40;;;;;;;15.17;50.63;100000.78;4936410;29;20087;-86
2023/09/24 05:32:25;;;;;;;0.40;0.40;;;;;;;15.22;50.45;100010.06;4944799;29;20047;-86
2023/09/24 05:35:18;;;;;;;0.50;0.50;;;;;;;15.36;50.33;100014.09;4960647;29;20047;-93
2023/09/24 05:37:45;;;;;;;0.40;0.40;;;;;;;15.35;49.95;99988.78;4937828;29;20082;-92
2023/09/24 05:40:13;;;;;;;0.40;0.40;;;;;;;15.61;49.62;100000.00;4938191;29;20459;-91
2023/09/24 05:42:41;;;;;;;0.43;0.43;;;;;;;15.64;49.39;100004.09;4908863;29;20455;-90
2023/09/24 05:45:09;;;;;;;0.40;0.40;;;;;;;15.69;49.36;99998.72;4906698;29;20046;-92
2023/09/24 05:47:37;;;;;;;0.40;0.40;;;;;;;15.79;49.06;100002.41;4921133;29;20055;-91
2023/09/24 05:50:05;;;;;;;0.40;0.40;;;;;;;15.94;49.11;100017.28;4914741;29;20054;-89
2023/09/24 05:52:32;;;;;;;0.40;0.40;;;;;;;15.89;48.96;100009.88;4937646;29;20116;-91
2023/09/24 05:55:00;;;;;;;0.40;0.40;;;;;;;16.01;48.55;100015.19;4949782;29;20070;-91
2023/09/24 05:57:32;;;;;;;0.40;0.40;;;;;;;16.01;48.71;100005.13;4940254;29;20550;-92
2023/09/24 06:00:04;;;;;;;0.40;0.40;;;;;;;16.04;48.68;100004.59;4956686;29;20081;-90
2023/09/24 06:02:38;;;;;;;0.50;0.50;;;;;;;16.14;48.80;100013.97;4899025;29;20532;-87
2023/09/24 06:05:07;;;;;;;0.47;0.47;;;;;;;16.20;48.43;100008.31;4898584;29;20064;-89
2023/09/24 06:07:34;;;;;;;0.40;0.40;;;;;;;16.20;48.59;99991.13;4920446;29;20545;-92
2023/09/24 06:10:04;;;;;;;0.40;0.40;;;;;;;16.35;48.65;100007.63;4895936;29;20052;-86
2023/09/24 06:12:32;;;;;;;0.40;0.40;;;;;;;16.39;48.32;100002.50;4900361;29;20048;-87
2023/09/24 06:14:59;;;;;;;0.40;0.40;;;;;;;16.52;48.22;100009.41;4905822;29;20059;-89
2023/09/24 06:17:29;;;;;;;0.40;0.40;;;;;;;16.59;48.22;100013.56;4897798;29;20151;-88
2023/09/24 06:19:56;;;;;;;0.40;0.40;;;;;;;16.66;47.94;100005.16;4904665;29;20103;-87
2023/09/24 06:22:24;;;;;;;0.45;0.45;;;;;;;16.72;47.81;100004.13;4911710;29;20535;-89
2023/09/24 06:24:53;;;;;;;0.40;0.40;;;;;;;16.74;47.79;99999.25;4906242;29;20059;-91
2023/09/24 06:27:23;;;;;;;0.40;0.40;;;;;;;16.87;47.59;99993.38;4894973;29;20083;-91
2023/09/24 06:29:59;;;;;;;0.40;0.40;;;;;;;16.93;47.17;100005.13;4857830;29;20062;-90
2023/09/24 06:32:29;;;;;;;0.40;0.40;;;;;;;16.96;47.10;99987.41;4911102;29;20055;-90
2023/09/24 06:34:57;;;;;;;0.40;0.40;;;;;;;17.09;47.03;99989.69;4874923;29;20105;-86
2023/09/24 06:37:26;;;;;;;0.47;0.47;;;;;;;17.09;46.94;99976.03;4895634;29;20519;-91
2023/09/24 06:40:00;;;;;;;0.40;0.40;;;;;;;17.23;46.89;99990.03;4925127;29;20051;-90
2023/09/24 06:42:28;;;;;;;0.40;0.40;;;;;;;17.36;46.87;99991.47;4918125;29;20048;-89
2023/09/24 06:44:57;;;;;;;0.40;0.40;;;;;;;17.51;46.52;99986.91;4581530;29;10000421;-91
2023/09/24 06:47:25;;;;;;;0.40;0.40;;;;;;;17.49;46.25;99969.16;4898608;29;20148;-93
2023/09/24 06:49:54;;;;;;;0.40;0.40;;;;;;;17.67;45.87;99968.69;4918629;29;20228;-86
2023/09/24 06:52:22;;;;;;;0.40;0.40;;;;;;;17.77;45.87;99987.84;4921721;29;20119;-90
2023/09/24 06:54:54;;;;;;;0.40;0.40;;;;;;;17.80;45.28;99974.75;4936494;29;20055;-87
2023/09/24 06:57:23;;;;;;;0.50;0.50;;;;;;;17.92;45.46;99972.59;4949417;29;20082;-92
2023/09/24 06:59:51;;;;;;;0.40;0.40;;;;;;;18.13;45.04;99970.75;4948635;29;20123;-91
2023/09/24 07:02:19;;;;;;;0.40;0.40;;;;;;;18.28;44.91;99972.66;4948575;29;20052;-89
2023/09/24 07:04:48;;;;;;;0.32;0.32;;;;;;;18.37;44.59;99951.91;4946850;29;20053;-91
2023/09/24 07:07:16;;;;;;;0.40;0.40;;;;;;;18.51;44.32;99977.59;4954707;29;20083;-91
2023/09/24 07:09:47;;;;;;;0.40;0.40;;;;;;;18.62;44.14;99970.22;4898502;29;20123;-87
2023/09/24 07:12:16;;;;;;;0.50;0.50;;;;;;;18.75;44.20;99979.78;4913385;29;20072;-89
2023/09/24 07:14:53;;;;;;;0.40;0.40;;;;;;;18.84;43.94;99965.31;4863722;29;20117;-91
2023/09/24 07:17:21;;;;;;;0.40;0.40;;;;;;;19.02;43.70;99946.69;4882837;29;20528;-92
2023/09/24 07:19:51;;;;;;;0.40;0.40;;;;;;;19.21;43.47;99979.72;4883438;29;20057;-91
2023/09/24 07:22:25;;;;;;;0.40;0.40;;;;;;;19.38;43.03;99982.94;4914907;29;20067;-92
2023/09/24 07:24:54;;;;;;;0.40;0.40;;;;;;;19.45;42.68;99988.13;4918865;29;20108;-94
2023/09/24 07:27:25;;;;;;;0.50;0.50;;;;;;;19.47;42.61;99975.81;4909036;29;20060;-93
2023/09/24 07:29:57;;;;;;;0.40;0.40;;;;;;;19.78;42.64;99981.19;4880895;29;20108;-91
2023/09/24 07:32:25;;;;;;;0.40;0.40;;;;;;;19.82;42.28;99975.94;4902972;29;20068;-90
2023/09/24 07:34:57;;;;;;;0.40;0.40;;;;;;;20.11;41.87;99984.28;4919708;29;20109;-92
2023/09/24 07:37:26;;;;;;;0.40;0.40;;;;;;;20.32;41.39;99988.50;4897902;29;20100;-94
2023/09/24 07:40:43;;;;;;;0.50;0.50;;;;;;;20.19;41.20;99972.72;4777249;23;20102;-91
2023/09/24 07:43:11;;;;;;;0.50;0.50;;;;;;;20.28;41.28;99968.25;4974472;28;20041;-91
2023/09/24 07:48:49;;;;;;;0.40;0.40;;;;;;;20.73;41.01;99985.44;5040522;23;20058;-92
2023/09/24 07:51:30;;;;;;;0.45;0.45;;;;;;;20.87;40.56;99971.91;4996517;28;20066;-92
2023/09/24 07:54:05;;;;;;;0.40;0.40;;;;;;;21.09;40.21;99957.69;4959699;28;20074;-93
2023/09/24 07:56:34;;;;;;;0.50;0.50;;;;;;;21.43;39.67;99976.00;4974731;28;20031;-93
2023/09/24 07:59:04;;;;;;;0.50;0.50;;;;;;;21.69;39.77;99964.69;4936556;28;20023;-92
2023/09/24 08:01:43;;;;;;;0.50;0.50;;;;;;;22.33;38.48;99987.16;5102003;23;20050;-94
2023/09/24 08:04:26;;;;;;;0.50;0.50;;;;;;;22.59;37.87;99977.38;4919428;29;20056;-89
2023/09/24 08:07:07;;;;;;;0.50;0.50;;;;;;;22.77;37.15;99964.69;4896901;29;20064;-88
2023/09/24 08:09:40;;;;;;;0.40;0.40;;;;;;;23.24;36.61;99983.94;4898276;29;20116;-89
2023/09/24 08:12:07;;;;;;;0.50;0.50;;;;;;;23.36;35.88;99962.22;4903000;29;20581;-92
2023/09/24 08:15:07;;;;;;;0.50;0.50;;;;;;;23.73;36.07;99976.91;4911223;29;20041;-92
2023/09/24 08:20:33;;;;;;;0.40;0.40;;;;;;;24.21;35.14;99966.16;5089788;23;20058;-92
2023/09/24 08:23:34;;;;;;;0.40;0.40;;;;;;;24.42;34.37;99949.94;4895167;29;20561;-91
2023/09/24 08:26:01;;;;;;;0.40;0.40;;;;;;;24.51;34.45;99943.69;4886433;29;20096;-89
2023/09/24 08:28:29;;;;;;;0.40;0.40;;;;;;;24.42;34.65;99957.41;4898334;29;20064;-87
2023/09/24 08:30:56;;;;;;;0.40;0.40;;;;;;;24.56;34.50;99946.31;4898699;29;20489;-87
2023/09/24 08:33:23;;;;;;;0.40;0.40;;;;;;;24.73;33.95;99948.38;4906415;29;20523;-89
2023/09/24 08:35:52;;;;;;;0.40;0.40;;;;;;;24.67;33.74;99944.94;4872531;29;20064;-90
2023/09/24 08:38:21;;;;;;;0.40;0.40;;;;;;;24.74;33.85;99914.09;4903788;29;20599;-90
2023/09/24 08:40:48;;;;;;;0.40;0.40;;;;;;;25.05;33.45;99931.47;4900852;29;20064;-89
2023/09/24 08:43:32;;;;;;;0.30;0.30;;;;;;;24.52;33.67;99951.66;4890040;29;20067;-90
2023/09/24 08:46:10;;;;;;;0.30;0.30;;;;;;;23.40;35.38;99943.97;4901515;29;20424;-88
2023/09/24 08:48:43;;;;;;;0.30;0.30;;;;;;;23.20;35.73;99950.69;4894468;29;20053;-89
2023/09/24 08:51:11;;;;;;;0.40;0.40;;;;;;;23.45;35.59;99954.06;4911154;29;20092;-90
2023/09/24 08:53:44;;;;;;;0.40;0.40;;;;;;;24.09;34.68;99943.03;4891589;29;20602;-88
2023/09/24 08:56:26;;;;;;;0.40;0.40;;;;;;;24.12;34.91;99936.88;4887023;29;20048;-90
2023/09/24 08:58:55;;;;;;;0.30;0.30;;;;;;;24.06;35.41;99938.16;4912285;29;20051;-88
2023/09/24 09:01:36;;;;;;;0.30;0.30;;;;;;;23.94;34.97;99952.47;4941214;28;20047;-88
2023/09/24 09:04:48;;;;;;;0.30;0.30;;;;;;;23.84;35.04;99941.69;4943566;28;20074;-89
2023/09/24 09:07:17;;;;;;;0.30;0.30;;;;;;;23.98;35.06;99931.44;4924234;28;20054;-90
2023/09/24 09:09:55;;;;;;;0.30;0.30;;;;;;;24.38;34.68;99942.59;4984467;28;20035;-90
2023/09/24 09:12:26;;;;;;;0.40;0.40;;;;;;;24.74;34.23;99936.19;4958081;28;20139;-88
2023/09/24 09:15:17;;;;;;;0.30;0.30;;;;;;;25.34;33.30;99932.91;4938040;28;20106;-89
2023/09/24 09:17:56;;;;;;;0.40;0.40;;;;;;;25.97;32.09;99927.19;4931618;29;20054;-89
2023/09/24 09:20:50;;;;;;;0.40;0.40;;;;;;;26.13;32.02;99925.53;4966662;29;20051;-89
2023/09/24 09:23:35;;;;;;;0.30;0.30;;;;;;;25.76;32.38;99935.28;4929154;29;20087;-89
2023/09/24 09:26:05;;;;;;;0.32;0.32;;;;;;;25.72;32.31;99926.78;4944813;29;20067;-89
2023/09/24 09:28:34;;;;;;;0.30;0.30;;;;;;;25.88;32.17;99925.22;4947609;29;20051;-88
2023/09/24 09:31:09;;;;;;;0.30;0.30;;;;;;;25.87;31.97;99940.19;4930389;29;20047;-88
2023/09/24 09:33:39;;;;;;;0.30;0.30;;;;;;;25.82;32.43;99892.50;4947933;29;20043;-90
2023/09/24 09:36:29;;;;;;;0.32;0.32;;;;;;;25.85;31.88;99928.66;4949105;29;20059;-90
2023/09/24 09:39:12;;;;;;;0.40;0.40;;;;;;;26.09;31.44;99919.06;4930609;29;20084;-91
2023/09/24 09:41:43;;;;;;;0.40;0.40;;;;;;;26.90;30.42;99915.47;4913847;29;20079;-88
2023/09/24 09:44:19;;;;;;;0.40;0.40;;;;;;;27.48;29.27;99934.47;4895023;29;20060;-89
2023/09/24 09:46:47;;;;;;;0.40;0.40;;;;;;;27.54;28.60;99922.03;4899436;29;20052;-89
2023/09/24 09:49:17;;;;;;;0.40;0.40;;;;;;;27.32;28.76;99920.34;4894390;29;20075;-89
2023/09/24 09:51:49;;;;;;;0.40;0.40;;;;;;;27.77;28.78;99908.66;4884953;29;20075;-88
2023/09/24 09:54:23;;;;;;;0.50;0.50;;;;;;;28.73;28.04;99914.97;4933058;29;20052;-89
2023/09/24 09:56:51;;;;;;;0.50;0.50;;;;;;;29.81;26.24;99899.81;4914737;29;20055;-89
2023/09/24 09:59:19;;;;;;;0.40;0.40;;;;;;;30.40;25.59;99891.94;4914031;29;20150;-90
2023/09/24 10:01:47;;;;;;;0.47;0.47;;;;;;;30.47;25.39;99888.56;4923514;29;20059;-90
2023/09/24 10:04:20;;;;;;;0.50;0.50;;;;;;;30.47;24.97;99896.91;4930856;29;20054;-87
2023/09/24 10:06:50;;;;;;;0.40;0.40;;;;;;;30.06;25.73;99888.59;4900351;29;20088;-90
2023/09/24 10:09:34;;;;;;;0.30;0.30;;;;;;;29.16;26.75;99901.72;4884724;29;20061;-89
2023/09/24 10:12:36;;;;;;;0.30;0.30;;;;;;;28.48;28.02;99900.22;4903357;29;20062;-89
2023/09/24 10:15:33;;;;;;;0.30;0.30;;;;;;;28.28;27.78;99896.34;4890610;29;20112;-90
2023/09/24 10:18:31;;;;;;;0.30;0.30;;;;;;;27.79;28.14;99884.19;4926156;29;20059;-91
2023/09/24 10:21:05;;;;;;;0.30;0.30;;;;;;;27.81;28.18;99890.19;4891926;29;20311;-90
2023/09/24 10:23:43;;;;;;;0.40;0.40;;;;;;;28.01;28.02;99878.31;4845199;29;20049;-89
2023/09/24 10:26:49;;;;;;;0.30;0.30;;;;;;;28.68;27.48;99859.66;4884527;29;20063;-90
2023/09/24 10:29:46;;;;;;;0.50;0.50;;;;;;;29.53;26.22;99860.00;4889123;29;20048;-90
2023/09/24 10:32:14;;;;;;;0.40;0.40;;;;;;;29.07;27.17;99856.59;4886279;29;20467;-90
2023/09/24 10:35:21;;;;;;;0.40;0.40;;;;;;;28.93;27.39;99852.16;4841804;29;20057;-90
2023/09/24 10:38:00;;;;;;;0.50;0.50;;;;;;;30.22;26.18;99860.81;4832820;29;20077;-90
2023/09/24 10:40:29;;;;;;;0.43;0.43;;;;;;;30.70;24.87;99858.91;4847194;29;20073;-90
2023/09/24 10:43:12;;;;;;;0.30;0.30;;;;;;;30.00;25.26;99890.81;4847678;29;20065;-89
2023/09/24 10:45:45;;;;;;;0.40;0.40;;;;;;;30.43;24.81;99872.53;4846709;29;20113;-88
2023/09/24 10:48:13;;;;;;;0.40;0.40;;;;;;;30.56;24.35;99878.88;4862372;29;20057;-89
2023/09/24 10:50:41;;;;;;;0.30;0.30;;;;;;;30.50;24.47;99859.97;4845839;29;20067;-90
2023/09/24 10:53:29;;;;;;;0.40;0.40;;;;;;;30.70;24.76;99861.69;4855170;29;20053;-88
2023/09/24 10:56:12;;;;;;;0.40;0.40;;;;;;;31.21;24.14;99852.59;4844721;29;20077;-89
2023/09/24 10:58:55;;;;;;;0.30;0.30;;;;;;;30.70;24.26;99855.31;4812089;29;20061;-88
2023/09/24 11:01:30;;;;;;;0.40;0.40;;;;;;;30.78;24.66;99830.06;4824931;29;20058;-88
2023/09/24 11:04:00;;;;;;;0.40;0.40;;;;;;;31.00;23.97;99850.94;4829181;29;20046;-87
2023/09/24 11:06:31;;;;;;;0.40;0.40;;;;;;;30.81;24.19;99812.59;4827441;29;20074;-87
2023/09/24 11:09:18;;;;;;;0.40;0.40;;;;;;;31.17;24.19;99846.13;4842683;29;20049;-88
2023/09/24 11:11:46;;;;;;;0.40;0.40;;;;;;;31.45;23.53;99837.66;4845161;29;20054;-92
2023/09/24 11:14:52;;;;;;;0.40;0.40;;;;;;;31.41;23.59;99857.06;4843062;29;20056;-91
2023/09/24 11:17:42;;;;;;;0.32;0.32;;;;;;;30.74;23.73;99843.09;4866893;29;20126;-91
2023/09/24 11:20:22;;;;;;;0.40;0.40;;;;;;;30.60;24.35;99842.75;4864690;29;20053;-91
2023/09/24 11:23:10;;;;;;;0.30;0.30;;;;;;;30.47;24.25;99864.28;4857887;29;20109;-92
2023/09/24 11:25:48;;;;;;;0.38;0.38;;;;;;;30.52;24.21;99850.09;4842005;29;20053;-91
2023/09/24 11:28:23;;;;;;;0.30;0.30;;;;;;;30.61;23.82;99855.47;4872368;29;20050;-93
2023/09/24 11:30:51;;;;;;;0.40;0.40;;;;;;;30.60;24.01;99851.91;4992630;23;20039;-91
2023/09/24 11:33:32;;;;;;;0.30;0.30;;;;;;;30.16;24.22;99853.88;4946683;29;20290;-92
2023/09/24 11:36:01;;;;;;;0.40;0.40;;;;;;;30.75;23.75;99864.22;4988952;28;20051;-91
2023/09/24 11:38:40;;;;;;;0.40;0.40;;;;;;;30.93;23.70;99875.03;5060381;23;20051;-92
2023/09/24 11:41:09;;;;;;;0.35;0.35;;;;;;;30.97;24.10;99839.69;4933714;28;20082;-88
2023/09/24 11:43:38;;;;;;;0.30;0.30;;;;;;;31.41;23.34;99867.44;4930239;28;20051;-90
2023/09/24 11:46:17;;;;;;;0.40;0.40;;;;;;;31.40;23.05;99860.22;4946509;28;20075;-91
2023/09/24 11:48:58;;;;;;;0.40;0.40;;;;;;;30.78;23.93;99845.97;4951322;28;20050;-93
2023/09/24 11:51:32;;;;;;;0.40;0.40;;;;;;;30.82;23.88;99833.78;4953078;28;20051;-90
2023/09/24 11:54:04;;;;;;;0.40;0.40;;;;;;;31.23;23.60;99861.41;4962822;28;20055;-92
2023/09/24 11:56:47;;;;;;;0.40;0.40;;;;;;;31.56;23.51;99858.19;5077041;23;20652;-89
2023/09/24 11:59:15;;;;;;;0.40;0.40;;;;;;;32.12;22.74;99841.03;4986475;28;20046;-90
2023/09/24 12:01:57;;;;;;;0.40;0.40;;;;;;;32.42;22.76;99839.56;5050832;23;20067;-91